DLH6142 FBKE-FYWB
Flight info
| Callsign | DLH6142 |
|---|---|
| Flight time | 2h 0m |
| Altitude | 38000 |
| Route | NEREX UY99 IBRIT UT945 UVKIK |
| Aircraft | B737/M-SDE2E3FGHIRWXY/LB1 |
Departure
| Time | 2026-05-08 00:54 |
|---|---|
| Airport | Kasane International Airport (FBKE) |
Arrival
| Time | 2026-05-08 02:54 |
|---|---|
| Airport | Walvis Bay International Airport (FYWB) |
| Time | Latitude | Longitude | Altitude | Speed | Heading |
|---|---|---|---|---|---|
| 2026-05-08 00:36 | -17.83027 | 25.16300 | 3321 ft | 0 kts | 257° |
| 2026-05-08 00:45 | -17.83023 | 25.16313 | 3323 ft | 2 kts | 233° |
| 2026-05-08 00:45 | -17.83016 | 25.16322 | 3323 ft | 2 kts | 212° |
| 2026-05-08 00:45 | -17.83006 | 25.16326 | 3323 ft | 0 kts | 167° |
| 2026-05-08 00:48 | -17.83013 | 25.16328 | 3323 ft | 3 kts | 167° |
| 2026-05-08 00:48 | -17.83046 | 25.16336 | 3322 ft | 6 kts | 164° |
| 2026-05-08 00:49 | -17.83086 | 25.16327 | 3321 ft | 6 kts | 220° |
| 2026-05-08 00:49 | -17.83107 | 25.16285 | 3324 ft | 8 kts | 249° |
| 2026-05-08 00:49 | -17.83128 | 25.16224 | 3324 ft | 9 kts | 249° |
| 2026-05-08 00:49 | -17.83174 | 25.16188 | 3325 ft | 7 kts | 180° |
| 2026-05-08 00:50 | -17.83218 | 25.16200 | 3324 ft | 6 kts | 162° |
| 2026-05-08 00:50 | -17.83259 | 25.16213 | 3322 ft | 6 kts | 173° |
| 2026-05-08 00:50 | -17.83300 | 25.16189 | 3323 ft | 10 kts | 236° |
| 2026-05-08 00:50 | -17.83328 | 25.16110 | 3322 ft | 13 kts | 251° |
| 2026-05-08 00:51 | -17.83360 | 25.16014 | 3323 ft | 16 kts | 250° |
| 2026-05-08 00:51 | -17.83399 | 25.15899 | 3322 ft | 18 kts | 250° |
| 2026-05-08 00:51 | -17.83440 | 25.15776 | 3322 ft | 18 kts | 251° |
| 2026-05-08 00:51 | -17.83481 | 25.15657 | 3324 ft | 17 kts | 250° |
| 2026-05-08 00:52 | -17.83518 | 25.15547 | 3325 ft | 15 kts | 251° |
| 2026-05-08 00:52 | -17.83551 | 25.15448 | 3325 ft | 14 kts | 250° |
| 2026-05-08 00:52 | -17.83598 | 25.15370 | 3325 ft | 8 kts | 236° |
| 2026-05-08 00:52 | -17.83590 | 25.15331 | 3326 ft | 3 kts | 323° |
| 2026-05-08 00:53 | -17.83569 | 25.15338 | 3326 ft | 3 kts | 51° |
| 2026-05-08 00:53 | -17.83569 | 25.15366 | 3326 ft | 5 kts | 90° |
| 2026-05-08 00:53 | -17.83545 | 25.15464 | 3324 ft | 31 kts | 72° |
| 2026-05-08 00:53 | -17.83365 | 25.16001 | 3322 ft | 122 kts | 70° |
| 2026-05-08 00:54 | -17.83008 | 25.17078 | 3496 ft | 181 kts | 71° |
| 2026-05-08 00:54 | -17.82554 | 25.18341 | 4430 ft | 191 kts | 72° |
| 2026-05-08 00:54 | -17.82315 | 25.19689 | 5517 ft | 197 kts | 91° |
| 2026-05-08 00:54 | -17.82569 | 25.21240 | 5772 ft | 234 kts | 109° |
| 2026-05-08 00:55 | -17.83326 | 25.22841 | 6246 ft | 252 kts | 125° |
| 2026-05-08 00:55 | -17.84565 | 25.24196 | 6683 ft | 274 kts | 145° |
| 2026-05-08 00:55 | -17.86355 | 25.24968 | 7452 ft | 278 kts | 174° |
| 2026-05-08 00:55 | -17.88288 | 25.24822 | 8257 ft | 286 kts | 201° |
| 2026-05-08 00:56 | -17.89911 | 25.23659 | 9272 ft | 282 kts | 230° |
| 2026-05-08 00:56 | -17.91104 | 25.22053 | 10384 ft | 278 kts | 233° |
| 2026-05-08 00:56 | -17.92330 | 25.20398 | 10803 ft | 301 kts | 232° |
| 2026-05-08 00:56 | -17.93731 | 25.18565 | 10554 ft | 334 kts | 232° |
| 2026-05-08 00:57 | -17.95199 | 25.16662 | 9767 ft | 345 kts | 232° |
| 2026-05-08 00:57 | -17.96826 | 25.14806 | 9093 ft | 345 kts | 213° |
| 2026-05-08 00:57 | -17.98964 | 25.14095 | 9736 ft | 310 kts | 183° |
| 2026-05-08 00:57 | -18.01084 | 25.14172 | 10335 ft | 307 kts | 188° |
| 2026-05-08 00:58 | -18.03179 | 25.13586 | 10953 ft | 316 kts | 202° |
| 2026-05-08 00:58 | -18.05187 | 25.12627 | 11549 ft | 326 kts | 210° |
| 2026-05-08 00:58 | -18.07176 | 25.11387 | 12170 ft | 336 kts | 215° |
| 2026-05-08 00:58 | -18.09110 | 25.09945 | 12800 ft | 344 kts | 219° |
| 2026-05-08 00:59 | -18.11001 | 25.08357 | 13430 ft | 350 kts | 222° |
| 2026-05-08 00:59 | -18.12844 | 25.06686 | 14039 ft | 350 kts | 224° |
| 2026-05-08 00:59 | -18.14636 | 25.04980 | 14600 ft | 352 kts | 225° |
| 2026-05-08 00:59 | -18.16438 | 25.03213 | 15182 ft | 353 kts | 225° |
| 2026-05-08 01:00 | -18.18212 | 25.01444 | 15764 ft | 355 kts | 226° |
| 2026-05-08 01:00 | -18.20007 | 24.99638 | 16367 ft | 358 kts | 226° |
| 2026-05-08 01:00 | -18.21815 | 24.97810 | 16976 ft | 360 kts | 226° |
| 2026-05-08 01:00 | -18.23634 | 24.95966 | 17608 ft | 363 kts | 226° |
| 2026-05-08 01:01 | -18.25450 | 24.94122 | 18247 ft | 368 kts | 226° |
| 2026-05-08 01:01 | -18.27307 | 24.92236 | 18824 ft | 373 kts | 226° |
| 2026-05-08 01:01 | -18.29193 | 24.90318 | 19402 ft | 377 kts | 226° |
| 2026-05-08 01:01 | -18.31070 | 24.88411 | 19976 ft | 380 kts | 226° |
| 2026-05-08 01:02 | -18.32989 | 24.86459 | 20568 ft | 383 kts | 226° |
| 2026-05-08 01:02 | -18.34920 | 24.84496 | 21166 ft | 386 kts | 227° |
| 2026-05-08 01:02 | -18.36829 | 24.82554 | 21768 ft | 388 kts | 227° |
| 2026-05-08 01:02 | -18.38783 | 24.80566 | 22397 ft | 390 kts | 227° |
| 2026-05-08 01:03 | -18.40748 | 24.78566 | 23038 ft | 392 kts | 227° |
| 2026-05-08 01:03 | -18.42692 | 24.76587 | 23679 ft | 393 kts | 227° |
| 2026-05-08 01:03 | -18.44664 | 24.74578 | 24233 ft | 394 kts | 227° |
| 2026-05-08 01:03 | -18.46642 | 24.72563 | 24789 ft | 395 kts | 227° |
| 2026-05-08 01:04 | -18.48636 | 24.70529 | 25143 ft | 402 kts | 227° |
| 2026-05-08 01:04 | -18.50641 | 24.68482 | 25498 ft | 408 kts | 227° |
| 2026-05-08 01:04 | -18.52699 | 24.66382 | 25856 ft | 413 kts | 228° |
| 2026-05-08 01:04 | -18.54786 | 24.64252 | 26216 ft | 418 kts | 228° |
| 2026-05-08 01:05 | -18.56884 | 24.62111 | 26579 ft | 422 kts | 228° |
| 2026-05-08 01:05 | -18.58974 | 24.59977 | 26939 ft | 425 kts | 228° |
| 2026-05-08 01:05 | -18.61116 | 24.57790 | 27311 ft | 427 kts | 228° |
| 2026-05-08 01:05 | -18.63257 | 24.55602 | 27687 ft | 430 kts | 228° |
| 2026-05-08 01:06 | -18.65401 | 24.53412 | 28071 ft | 431 kts | 228° |
| 2026-05-08 01:06 | -18.67562 | 24.51202 | 28454 ft | 433 kts | 228° |
| 2026-05-08 01:06 | -18.69740 | 24.48975 | 28848 ft | 434 kts | 228° |
| 2026-05-08 01:06 | -18.71891 | 24.46773 | 29230 ft | 435 kts | 229° |
| 2026-05-08 01:07 | -18.74065 | 24.44549 | 29631 ft | 436 kts | 229° |
| 2026-05-08 01:07 | -18.76249 | 24.42311 | 30042 ft | 437 kts | 229° |
| 2026-05-08 01:07 | -18.78431 | 24.40076 | 30403 ft | 437 kts | 229° |
| 2026-05-08 01:07 | -18.80621 | 24.37831 | 30746 ft | 438 kts | 229° |
| 2026-05-08 01:08 | -18.82784 | 24.35613 | 31088 ft | 437 kts | 230° |
| 2026-05-08 01:08 | -18.84992 | 24.33348 | 31439 ft | 437 kts | 230° |
| 2026-05-08 01:08 | -18.87170 | 24.31113 | 31805 ft | 436 kts | 230° |
| 2026-05-08 01:08 | -18.89328 | 24.28899 | 32164 ft | 435 kts | 231° |
| 2026-05-08 01:09 | -18.91549 | 24.26737 | 32526 ft | 437 kts | 227° |
| 2026-05-08 01:09 | -18.93934 | 24.24708 | 32898 ft | 438 kts | 225° |
| 2026-05-08 01:09 | -18.96369 | 24.22766 | 33273 ft | 437 kts | 225° |
| 2026-05-08 01:09 | -18.98814 | 24.20853 | 33655 ft | 435 kts | 225° |
| 2026-05-08 01:10 | -19.01218 | 24.18966 | 34035 ft | 432 kts | 225° |
| 2026-05-08 01:10 | -19.03622 | 24.17060 | 34378 ft | 429 kts | 226° |
| 2026-05-08 01:10 | -19.05973 | 24.15177 | 34715 ft | 426 kts | 226° |
| 2026-05-08 01:10 | -19.08331 | 24.13272 | 35057 ft | 424 kts | 226° |
| 2026-05-08 01:11 | -19.10669 | 24.11373 | 35398 ft | 421 kts | 226° |
| 2026-05-08 01:11 | -19.12995 | 24.09480 | 35741 ft | 419 kts | 227° |
| 2026-05-08 01:11 | -19.15278 | 24.07617 | 36017 ft | 419 kts | 227° |
| 2026-05-08 01:11 | -19.17593 | 24.05726 | 36316 ft | 419 kts | 227° |
| 2026-05-08 01:12 | -19.19908 | 24.03835 | 36600 ft | 418 kts | 227° |
| 2026-05-08 01:12 | -19.22210 | 24.01955 | 36891 ft | 418 kts | 227° |
| 2026-05-08 01:12 | -19.24491 | 24.00092 | 37197 ft | 418 kts | 227° |
| 2026-05-08 01:12 | -19.26811 | 23.98198 | 37500 ft | 417 kts | 227° |
| 2026-05-08 01:13 | -19.29110 | 23.96320 | 37809 ft | 416 kts | 227° |
| 2026-05-08 01:13 | -19.31405 | 23.94446 | 38119 ft | 416 kts | 227° |
| 2026-05-08 01:13 | -19.33676 | 23.92587 | 38107 ft | 420 kts | 227° |
| 2026-05-08 01:14 | -19.38309 | 23.88798 | 38125 ft | 417 kts | 227° |
| 2026-05-08 01:14 | -19.42872 | 23.85068 | 38129 ft | 414 kts | 227° |
| 2026-05-08 01:15 | -19.47412 | 23.81351 | 38135 ft | 412 kts | 227° |
| 2026-05-08 01:15 | -19.51953 | 23.77628 | 38128 ft | 410 kts | 227° |
| 2026-05-08 01:16 | -19.56439 | 23.73948 | 38129 ft | 409 kts | 227° |
| 2026-05-08 01:16 | -19.60960 | 23.70235 | 38138 ft | 410 kts | 227° |
| 2026-05-08 01:17 | -19.65457 | 23.66540 | 38137 ft | 411 kts | 227° |
| 2026-05-08 01:17 | -19.69994 | 23.62809 | 38142 ft | 413 kts | 227° |
| 2026-05-08 01:18 | -19.74533 | 23.59075 | 38152 ft | 415 kts | 226° |
| 2026-05-08 01:18 | -19.78337 | 23.55944 | 38158 ft | 416 kts | 226° |
| 2026-05-08 01:19 | -19.83694 | 23.51531 | 38158 ft | 418 kts | 226° |
| 2026-05-08 01:19 | -19.88272 | 23.47757 | 38155 ft | 419 kts | 226° |
| 2026-05-08 01:20 | -19.92894 | 23.43945 | 38159 ft | 419 kts | 226° |
| 2026-05-08 01:20 | -19.97320 | 23.40000 | 38151 ft | 409 kts | 235° |
| 2026-05-08 01:21 | -20.00622 | 23.35239 | 38149 ft | 395 kts | 248° |
| 2026-05-08 01:21 | -20.02930 | 23.30015 | 38156 ft | 391 kts | 251° |
| 2026-05-08 01:22 | -20.05191 | 23.24721 | 38150 ft | 390 kts | 251° |
| 2026-05-08 01:22 | -20.07447 | 23.19472 | 38150 ft | 390 kts | 251° |
| 2026-05-08 01:23 | -20.09706 | 23.14244 | 38144 ft | 390 kts | 251° |
| 2026-05-08 01:23 | -20.11981 | 23.08988 | 38137 ft | 390 kts | 251° |
| 2026-05-08 01:24 | -20.14242 | 23.03759 | 38139 ft | 390 kts | 251° |
| 2026-05-08 01:24 | -20.16516 | 22.98496 | 38138 ft | 391 kts | 251° |
| 2026-05-08 01:25 | -20.18773 | 22.93267 | 38143 ft | 391 kts | 251° |
| 2026-05-08 01:25 | -20.21052 | 22.87983 | 38141 ft | 392 kts | 251° |
| 2026-05-08 01:26 | -20.23319 | 22.82721 | 38139 ft | 392 kts | 251° |
| 2026-05-08 01:26 | -20.25588 | 22.77448 | 38141 ft | 393 kts | 251° |
| 2026-05-08 01:27 | -20.27870 | 22.72139 | 38140 ft | 393 kts | 251° |
| 2026-05-08 01:27 | -20.30143 | 22.66847 | 38141 ft | 394 kts | 251° |
| 2026-05-08 01:28 | -20.32422 | 22.61536 | 38141 ft | 394 kts | 251° |
| 2026-05-08 01:28 | -20.34687 | 22.56254 | 38143 ft | 394 kts | 251° |
| 2026-05-08 01:29 | -20.36972 | 22.50917 | 38147 ft | 395 kts | 250° |
| 2026-05-08 01:29 | -20.39241 | 22.45614 | 38145 ft | 395 kts | 250° |
| 2026-05-08 01:30 | -20.41562 | 22.40275 | 38145 ft | 395 kts | 250° |
| 2026-05-08 01:30 | -20.43935 | 22.34999 | 38149 ft | 395 kts | 249° |
| 2026-05-08 01:31 | -20.46308 | 22.29728 | 38148 ft | 395 kts | 249° |
| 2026-05-08 01:31 | -20.48683 | 22.24428 | 38148 ft | 395 kts | 249° |
| 2026-05-08 01:32 | -20.51044 | 22.19142 | 38143 ft | 395 kts | 250° |
| 2026-05-08 01:32 | -20.53409 | 22.13840 | 38145 ft | 395 kts | 250° |
| 2026-05-08 01:33 | -20.55758 | 22.08568 | 38144 ft | 395 kts | 250° |
| 2026-05-08 01:33 | -20.58115 | 22.03274 | 38144 ft | 395 kts | 250° |
| 2026-05-08 01:34 | -20.60076 | 21.98865 | 38144 ft | 394 kts | 250° |
| 2026-05-08 01:34 | -20.62422 | 21.93587 | 38144 ft | 394 kts | 250° |
| 2026-05-08 01:35 | -20.64777 | 21.88281 | 38139 ft | 394 kts | 250° |
| 2026-05-08 01:35 | -20.67501 | 21.82138 | 38143 ft | 394 kts | 250° |
| 2026-05-08 01:36 | -20.69456 | 21.77725 | 38139 ft | 394 kts | 250° |
| 2026-05-08 01:36 | -20.71804 | 21.72417 | 38139 ft | 394 kts | 250° |
| 2026-05-08 01:37 | -20.74136 | 21.67144 | 38139 ft | 394 kts | 250° |
| 2026-05-08 01:37 | -20.76449 | 21.61861 | 38140 ft | 393 kts | 250° |
| 2026-05-08 01:38 | -20.78650 | 21.56515 | 38144 ft | 392 kts | 251° |
| 2026-05-08 01:38 | -20.80827 | 21.51161 | 38139 ft | 392 kts | 251° |
| 2026-05-08 01:39 | -20.83008 | 21.45818 | 38142 ft | 391 kts | 251° |
| 2026-05-08 01:39 | -20.85182 | 21.40506 | 38142 ft | 391 kts | 251° |
| 2026-05-08 01:40 | -20.87364 | 21.35174 | 38142 ft | 391 kts | 251° |
| 2026-05-08 01:40 | -20.89529 | 21.29877 | 38146 ft | 390 kts | 251° |
| 2026-05-08 01:41 | -20.91705 | 21.24550 | 38142 ft | 390 kts | 251° |
| 2026-05-08 01:41 | -20.93879 | 21.19222 | 38141 ft | 390 kts | 251° |
| 2026-05-08 01:42 | -20.96041 | 21.13917 | 38139 ft | 390 kts | 251° |
| 2026-05-08 01:42 | -20.98202 | 21.08608 | 38140 ft | 390 kts | 251° |
| 2026-05-08 01:43 | -21.00371 | 21.03274 | 38139 ft | 390 kts | 251° |
| 2026-05-08 01:43 | -21.02540 | 20.97981 | 38137 ft | 390 kts | 250° |
| 2026-05-08 01:44 | -21.04808 | 20.92683 | 38139 ft | 390 kts | 250° |
| 2026-05-08 01:44 | -21.07072 | 20.87427 | 38132 ft | 390 kts | 250° |
| 2026-05-08 01:45 | -21.09339 | 20.82142 | 38134 ft | 390 kts | 250° |
| 2026-05-08 01:45 | -21.11591 | 20.76872 | 38138 ft | 390 kts | 250° |
| 2026-05-08 01:46 | -21.13835 | 20.71611 | 38142 ft | 389 kts | 250° |
| 2026-05-08 01:46 | -21.16087 | 20.66322 | 38129 ft | 389 kts | 250° |
| 2026-05-08 01:47 | -21.18322 | 20.61071 | 38138 ft | 388 kts | 250° |
| 2026-05-08 01:47 | -21.20572 | 20.55777 | 38127 ft | 388 kts | 250° |
| 2026-05-08 01:48 | -21.23921 | 20.47885 | 38137 ft | 388 kts | 250° |
| 2026-05-08 01:48 | -21.26145 | 20.42639 | 38136 ft | 387 kts | 250° |
| 2026-05-08 01:49 | -21.28367 | 20.37392 | 38129 ft | 387 kts | 250° |
| 2026-05-08 01:49 | -21.30588 | 20.32142 | 38135 ft | 387 kts | 250° |
| 2026-05-08 01:50 | -21.32819 | 20.26863 | 38130 ft | 387 kts | 250° |
| 2026-05-08 01:50 | -21.35035 | 20.21613 | 38133 ft | 387 kts | 250° |
| 2026-05-08 01:51 | -21.37263 | 20.16330 | 38132 ft | 387 kts | 250° |
| 2026-05-08 01:51 | -21.39472 | 20.11088 | 38136 ft | 387 kts | 250° |
| 2026-05-08 01:52 | -21.41680 | 20.05842 | 38132 ft | 386 kts | 250° |
| 2026-05-08 01:52 | -21.43882 | 20.00603 | 38134 ft | 386 kts | 250° |
| 2026-05-08 01:53 | -21.46096 | 19.95330 | 38138 ft | 386 kts | 250° |
| 2026-05-08 01:53 | -21.48295 | 19.90089 | 38140 ft | 386 kts | 250° |
| 2026-05-08 01:54 | -21.50503 | 19.84820 | 38139 ft | 386 kts | 250° |
| 2026-05-08 01:54 | -21.52695 | 19.79585 | 38133 ft | 386 kts | 250° |
| 2026-05-08 01:55 | -21.54900 | 19.74313 | 38137 ft | 385 kts | 250° |
| 2026-05-08 01:55 | -21.57086 | 19.69080 | 38136 ft | 385 kts | 250° |
| 2026-05-08 01:56 | -21.59283 | 19.63816 | 38148 ft | 385 kts | 250° |
| 2026-05-08 01:56 | -21.61471 | 19.58568 | 38145 ft | 385 kts | 250° |
| 2026-05-08 01:57 | -21.63646 | 19.53346 | 38145 ft | 385 kts | 250° |
| 2026-05-08 01:57 | -21.65834 | 19.48087 | 38142 ft | 384 kts | 250° |
| 2026-05-08 01:58 | -21.68021 | 19.42823 | 38144 ft | 384 kts | 250° |
| 2026-05-08 01:58 | -21.70190 | 19.37599 | 38140 ft | 384 kts | 250° |
| 2026-05-08 01:59 | -21.72359 | 19.32369 | 38143 ft | 384 kts | 250° |
| 2026-05-08 01:59 | -21.74528 | 19.27133 | 38146 ft | 383 kts | 250° |
| 2026-05-08 02:00 | -21.76703 | 19.21876 | 38148 ft | 383 kts | 250° |
| 2026-05-08 02:00 | -21.78860 | 19.16658 | 38143 ft | 383 kts | 250° |
| 2026-05-08 02:01 | -21.81031 | 19.11401 | 38143 ft | 383 kts | 250° |
| 2026-05-08 02:01 | -21.83194 | 19.06158 | 38144 ft | 383 kts | 250° |
| 2026-05-08 02:02 | -21.85346 | 19.00933 | 38141 ft | 383 kts | 250° |
| 2026-05-08 02:02 | -21.86780 | 18.97451 | 38143 ft | 383 kts | 250° |
| 2026-05-08 02:03 | -21.89656 | 18.90457 | 38142 ft | 383 kts | 250° |
| 2026-05-08 02:03 | -21.91814 | 18.85203 | 38138 ft | 383 kts | 250° |
| 2026-05-08 02:04 | -21.93952 | 18.79993 | 38134 ft | 383 kts | 250° |
| 2026-05-08 02:04 | -21.96104 | 18.74742 | 38133 ft | 383 kts | 250° |
| 2026-05-08 02:05 | -21.98257 | 18.69484 | 38133 ft | 383 kts | 250° |
| 2026-05-08 02:05 | -22.00399 | 18.64246 | 38135 ft | 383 kts | 250° |
| 2026-05-08 02:06 | -22.02549 | 18.58983 | 38136 ft | 383 kts | 250° |
| 2026-05-08 02:06 | -22.04684 | 18.53752 | 38132 ft | 382 kts | 250° |
| 2026-05-08 02:07 | -22.06826 | 18.48496 | 38130 ft | 382 kts | 250° |
| 2026-05-08 02:07 | -22.08958 | 18.43260 | 38128 ft | 382 kts | 250° |
| 2026-05-08 02:08 | -22.11096 | 18.38004 | 38127 ft | 382 kts | 250° |
| 2026-05-08 02:08 | -22.13218 | 18.32781 | 38132 ft | 382 kts | 250° |
| 2026-05-08 02:09 | -22.15356 | 18.27515 | 38131 ft | 382 kts | 250° |
| 2026-05-08 02:09 | -22.17487 | 18.22259 | 38127 ft | 382 kts | 250° |
| 2026-05-08 02:10 | -22.19600 | 18.17041 | 38129 ft | 382 kts | 250° |
| 2026-05-08 02:10 | -22.21727 | 18.11784 | 38131 ft | 382 kts | 250° |
| 2026-05-08 02:11 | -22.23853 | 18.06522 | 38119 ft | 382 kts | 250° |
| 2026-05-08 02:11 | -22.25974 | 18.01268 | 38116 ft | 381 kts | 250° |
| 2026-05-08 02:12 | -22.28076 | 17.96054 | 38120 ft | 381 kts | 250° |
| 2026-05-08 02:12 | -22.30188 | 17.90810 | 38113 ft | 381 kts | 250° |
| 2026-05-08 02:13 | -22.32299 | 17.85564 | 38110 ft | 381 kts | 250° |
| 2026-05-08 02:13 | -22.34406 | 17.80320 | 38111 ft | 381 kts | 250° |
| 2026-05-08 02:14 | -22.36520 | 17.75054 | 38105 ft | 380 kts | 250° |
| 2026-05-08 02:14 | -22.38616 | 17.69827 | 38157 ft | 380 kts | 250° |
| 2026-05-08 02:15 | -22.40723 | 17.64565 | 38173 ft | 381 kts | 250° |
| 2026-05-08 02:15 | -22.42814 | 17.59340 | 38197 ft | 381 kts | 250° |
| 2026-05-08 02:16 | -22.44922 | 17.54065 | 38219 ft | 381 kts | 250° |
| 2026-05-08 02:16 | -22.47022 | 17.48799 | 38215 ft | 381 kts | 251° |
| 2026-05-08 02:17 | -22.48468 | 17.43336 | 38220 ft | 377 kts | 260° |
| 2026-05-08 02:17 | -22.49494 | 17.37797 | 38217 ft | 378 kts | 260° |
| 2026-05-08 02:18 | -22.50535 | 17.32210 | 38187 ft | 378 kts | 259° |
| 2026-05-08 02:18 | -22.51586 | 17.26627 | 38171 ft | 378 kts | 259° |
| 2026-05-08 02:19 | -22.52633 | 17.21082 | 38202 ft | 378 kts | 259° |
| 2026-05-08 02:19 | -22.53688 | 17.15483 | 38243 ft | 378 kts | 259° |
| 2026-05-08 02:20 | -22.54729 | 17.09951 | 38223 ft | 373 kts | 259° |
| 2026-05-08 02:20 | -22.55248 | 17.07193 | 37807 ft | 372 kts | 260° |
| 2026-05-08 02:20 | -22.55761 | 17.04457 | 37413 ft | 367 kts | 260° |
| 2026-05-08 02:21 | -22.56260 | 17.01796 | 37005 ft | 363 kts | 260° |
| 2026-05-08 02:21 | -22.56758 | 16.99137 | 36608 ft | 358 kts | 260° |
| 2026-05-08 02:21 | -22.57252 | 16.96503 | 36195 ft | 354 kts | 260° |
| 2026-05-08 02:21 | -22.57738 | 16.93894 | 35801 ft | 350 kts | 260° |
| 2026-05-08 02:22 | -22.58212 | 16.91325 | 35461 ft | 346 kts | 260° |
| 2026-05-08 02:22 | -22.58523 | 16.89637 | 35210 ft | 348 kts | 260° |
| 2026-05-08 02:22 | -22.59170 | 16.86101 | 34737 ft | 373 kts | 260° |
| 2026-05-08 02:22 | -22.59684 | 16.83289 | 34370 ft | 387 kts | 260° |
| 2026-05-08 02:23 | -22.60208 | 16.80424 | 33955 ft | 387 kts | 260° |
| 2026-05-08 02:23 | -22.60555 | 16.78535 | 33662 ft | 382 kts | 260° |
| 2026-05-08 02:23 | -22.61070 | 16.75735 | 33216 ft | 376 kts | 260° |
| 2026-05-08 02:23 | -22.61574 | 16.72987 | 32791 ft | 371 kts | 260° |
| 2026-05-08 02:24 | -22.62082 | 16.70207 | 32400 ft | 381 kts | 260° |
| 2026-05-08 02:24 | -22.62601 | 16.67363 | 31990 ft | 385 kts | 260° |
| 2026-05-08 02:24 | -22.63120 | 16.64520 | 31596 ft | 383 kts | 260° |
| 2026-05-08 02:24 | -22.63627 | 16.61740 | 31210 ft | 379 kts | 259° |
| 2026-05-08 02:25 | -22.64137 | 16.58942 | 30826 ft | 376 kts | 259° |
| 2026-05-08 02:25 | -22.64640 | 16.56177 | 30455 ft | 374 kts | 259° |
| 2026-05-08 02:25 | -22.65152 | 16.53363 | 30107 ft | 389 kts | 259° |
| 2026-05-08 02:25 | -22.65684 | 16.50427 | 29679 ft | 404 kts | 259° |
| 2026-05-08 02:26 | -22.66228 | 16.47423 | 29243 ft | 405 kts | 259° |
| 2026-05-08 02:26 | -22.66760 | 16.44493 | 28817 ft | 399 kts | 259° |
| 2026-05-08 02:26 | -22.67291 | 16.41561 | 28393 ft | 392 kts | 259° |
| 2026-05-08 02:26 | -22.67817 | 16.38654 | 27980 ft | 391 kts | 259° |
| 2026-05-08 02:27 | -22.68333 | 16.35798 | 27582 ft | 390 kts | 259° |
| 2026-05-08 02:27 | -22.68852 | 16.32918 | 27183 ft | 389 kts | 259° |
| 2026-05-08 02:27 | -22.69370 | 16.30049 | 26795 ft | 388 kts | 259° |
| 2026-05-08 02:27 | -22.69884 | 16.27188 | 26398 ft | 386 kts | 260° |
| 2026-05-08 02:28 | -22.70398 | 16.24332 | 26024 ft | 385 kts | 260° |
| 2026-05-08 02:28 | -22.70904 | 16.21515 | 25644 ft | 383 kts | 260° |
| 2026-05-08 02:28 | -22.71411 | 16.18687 | 25267 ft | 381 kts | 260° |
| 2026-05-08 02:28 | -22.71918 | 16.15858 | 24897 ft | 379 kts | 260° |
| 2026-05-08 02:29 | -22.72414 | 16.13092 | 24545 ft | 377 kts | 260° |
| 2026-05-08 02:29 | -22.72914 | 16.10295 | 24182 ft | 376 kts | 260° |
| 2026-05-08 02:29 | -22.73410 | 16.07523 | 23827 ft | 375 kts | 260° |
| 2026-05-08 02:29 | -22.73904 | 16.04751 | 23440 ft | 373 kts | 260° |
| 2026-05-08 02:30 | -22.74396 | 16.01992 | 23019 ft | 372 kts | 260° |
| 2026-05-08 02:30 | -22.74886 | 15.99242 | 22595 ft | 370 kts | 260° |
| 2026-05-08 02:30 | -22.75366 | 15.96541 | 22203 ft | 368 kts | 260° |
| 2026-05-08 02:30 | -22.75848 | 15.93829 | 21828 ft | 365 kts | 260° |
| 2026-05-08 02:31 | -22.76327 | 15.91135 | 21475 ft | 363 kts | 260° |
| 2026-05-08 02:31 | -22.76802 | 15.88455 | 21132 ft | 360 kts | 259° |
| 2026-05-08 02:31 | -22.77274 | 15.85793 | 20781 ft | 357 kts | 259° |
| 2026-05-08 02:31 | -22.77739 | 15.83166 | 20437 ft | 350 kts | 259° |
| 2026-05-08 02:32 | -22.78188 | 15.80625 | 20105 ft | 344 kts | 259° |
| 2026-05-08 02:32 | -22.78634 | 15.78103 | 19774 ft | 339 kts | 259° |
| 2026-05-08 02:32 | -22.79074 | 15.75608 | 19443 ft | 335 kts | 259° |
| 2026-05-08 02:32 | -22.79511 | 15.73133 | 19119 ft | 332 kts | 259° |
| 2026-05-08 02:33 | -22.79944 | 15.70676 | 18802 ft | 332 kts | 259° |
| 2026-05-08 02:33 | -22.80378 | 15.68207 | 18488 ft | 335 kts | 259° |
| 2026-05-08 02:33 | -22.80818 | 15.65709 | 18160 ft | 337 kts | 259° |
| 2026-05-08 02:33 | -22.81250 | 15.63245 | 17793 ft | 336 kts | 259° |
| 2026-05-08 02:34 | -22.81688 | 15.60755 | 17440 ft | 335 kts | 259° |
| 2026-05-08 02:34 | -22.82123 | 15.58274 | 17080 ft | 334 kts | 259° |
| 2026-05-08 02:34 | -22.82551 | 15.55831 | 16735 ft | 333 kts | 259° |
| 2026-05-08 02:34 | -22.82983 | 15.53364 | 16434 ft | 331 kts | 259° |
| 2026-05-08 02:35 | -22.83411 | 15.50916 | 16136 ft | 329 kts | 259° |
| 2026-05-08 02:35 | -22.83837 | 15.48475 | 15847 ft | 328 kts | 259° |
| 2026-05-08 02:35 | -22.84261 | 15.46048 | 15552 ft | 327 kts | 259° |
| 2026-05-08 02:35 | -22.84677 | 15.43664 | 15261 ft | 323 kts | 259° |
| 2026-05-08 02:36 | -22.85089 | 15.41297 | 14970 ft | 313 kts | 259° |
| 2026-05-08 02:36 | -22.85488 | 15.39006 | 14686 ft | 304 kts | 259° |
| 2026-05-08 02:36 | -22.85875 | 15.36782 | 14391 ft | 296 kts | 259° |
| 2026-05-08 02:36 | -22.86248 | 15.34635 | 14115 ft | 289 kts | 259° |
| 2026-05-08 02:37 | -22.86616 | 15.32518 | 13834 ft | 282 kts | 259° |
| 2026-05-08 02:37 | -22.86976 | 15.30440 | 13541 ft | 279 kts | 259° |
| 2026-05-08 02:37 | -22.87334 | 15.28374 | 13292 ft | 277 kts | 260° |
| 2026-05-08 02:37 | -22.87690 | 15.26320 | 13030 ft | 276 kts | 260° |
| 2026-05-08 02:38 | -22.88045 | 15.24267 | 12781 ft | 276 kts | 260° |
| 2026-05-08 02:38 | -22.88395 | 15.22243 | 12526 ft | 275 kts | 260° |
| 2026-05-08 02:38 | -22.88748 | 15.20201 | 12288 ft | 275 kts | 260° |
| 2026-05-08 02:38 | -22.89102 | 15.18153 | 12033 ft | 275 kts | 260° |
| 2026-05-08 02:39 | -22.89549 | 15.16135 | 11793 ft | 275 kts | 253° |
| 2026-05-08 02:39 | -22.90161 | 15.14193 | 11556 ft | 276 kts | 251° |
| 2026-05-08 02:39 | -22.90814 | 15.12236 | 11314 ft | 276 kts | 251° |
| 2026-05-08 02:39 | -22.91471 | 15.10279 | 11071 ft | 277 kts | 251° |
| 2026-05-08 02:40 | -22.92131 | 15.08304 | 10840 ft | 277 kts | 251° |
| 2026-05-08 02:40 | -22.92782 | 15.06350 | 10606 ft | 277 kts | 251° |
| 2026-05-08 02:40 | -22.93435 | 15.04377 | 10365 ft | 277 kts | 251° |
| 2026-05-08 02:40 | -22.94087 | 15.02401 | 10137 ft | 278 kts | 251° |
| 2026-05-08 02:41 | -22.94728 | 15.00455 | 9916 ft | 274 kts | 251° |
| 2026-05-08 02:41 | -22.95363 | 14.98524 | 9673 ft | 269 kts | 251° |
| 2026-05-08 02:41 | -22.95991 | 14.96609 | 9454 ft | 268 kts | 251° |
| 2026-05-08 02:41 | -22.96621 | 14.94684 | 9231 ft | 269 kts | 251° |
| 2026-05-08 02:42 | -22.97242 | 14.92785 | 9000 ft | 270 kts | 251° |
| 2026-05-08 02:42 | -22.97873 | 14.90859 | 8776 ft | 270 kts | 251° |
| 2026-05-08 02:42 | -22.98503 | 14.88930 | 8563 ft | 271 kts | 251° |
| 2026-05-08 02:42 | -22.99132 | 14.87004 | 8335 ft | 271 kts | 251° |
| 2026-05-08 02:43 | -22.99753 | 14.85101 | 8117 ft | 269 kts | 251° |
| 2026-05-08 02:43 | -23.00372 | 14.83206 | 7888 ft | 262 kts | 251° |
| 2026-05-08 02:43 | -23.00976 | 14.81354 | 7662 ft | 256 kts | 251° |
| 2026-05-08 02:43 | -23.01565 | 14.79549 | 7455 ft | 250 kts | 251° |
| 2026-05-08 02:44 | -23.02129 | 14.77819 | 7291 ft | 240 kts | 251° |
| 2026-05-08 02:44 | -23.02674 | 14.76148 | 7101 ft | 227 kts | 251° |
| 2026-05-08 02:44 | -23.03189 | 14.74567 | 6904 ft | 215 kts | 251° |
| 2026-05-08 02:44 | -23.03671 | 14.73086 | 6715 ft | 205 kts | 251° |
| 2026-05-08 02:45 | -23.04137 | 14.71652 | 6509 ft | 198 kts | 251° |
| 2026-05-08 02:45 | -23.04598 | 14.70237 | 6328 ft | 197 kts | 251° |
| 2026-05-08 02:45 | -23.05051 | 14.68841 | 6152 ft | 199 kts | 251° |
| 2026-05-08 02:45 | -23.05511 | 14.67423 | 5950 ft | 200 kts | 251° |
| 2026-05-08 02:46 | -23.05975 | 14.65996 | 5769 ft | 199 kts | 251° |
| 2026-05-08 02:46 | -23.06430 | 14.64593 | 5600 ft | 199 kts | 251° |
| 2026-05-08 02:46 | -23.06894 | 14.63164 | 5429 ft | 199 kts | 251° |
| 2026-05-08 02:46 | -23.07350 | 14.61760 | 5266 ft | 199 kts | 251° |
| 2026-05-08 02:47 | -23.07809 | 14.60343 | 5085 ft | 199 kts | 251° |
| 2026-05-08 02:47 | -23.08272 | 14.58917 | 4895 ft | 200 kts | 250° |
| 2026-05-08 02:47 | -23.08733 | 14.57496 | 4702 ft | 200 kts | 250° |
| 2026-05-08 02:47 | -23.09185 | 14.56102 | 4480 ft | 190 kts | 250° |
| 2026-05-08 02:48 | -23.09609 | 14.54793 | 4263 ft | 181 kts | 250° |
| 2026-05-08 02:48 | -23.10018 | 14.53530 | 4051 ft | 173 kts | 250° |
| 2026-05-08 02:48 | -23.10413 | 14.52311 | 3836 ft | 167 kts | 249° |
| 2026-05-08 02:48 | -23.10677 | 14.51106 | 3615 ft | 169 kts | 274° |
| 2026-05-08 02:49 | -23.10158 | 14.49991 | 3425 ft | 170 kts | 323° |
| 2026-05-08 02:49 | -23.09067 | 14.49538 | 3274 ft | 169 kts | 343° |
| 2026-05-08 02:49 | -23.07950 | 14.49145 | 3094 ft | 171 kts | 342° |
| 2026-05-08 02:49 | -23.06827 | 14.48743 | 2969 ft | 170 kts | 342° |
| 2026-05-08 02:50 | -23.05691 | 14.48341 | 2799 ft | 171 kts | 342° |
| 2026-05-08 02:50 | -23.04581 | 14.47947 | 2636 ft | 161 kts | 341° |
| 2026-05-08 02:50 | -23.03497 | 14.47874 | 2413 ft | 159 kts | 22° |
| 2026-05-08 02:50 | -23.02713 | 14.48640 | 2217 ft | 152 kts | 70° |
| 2026-05-08 02:51 | -23.02479 | 14.49733 | 2106 ft | 150 kts | 75° |
| 2026-05-08 02:51 | -23.02154 | 14.50817 | 1962 ft | 151 kts | 72° |
| 2026-05-08 02:51 | -23.01826 | 14.51876 | 1816 ft | 142 kts | 72° |
| 2026-05-08 02:51 | -23.01513 | 14.52894 | 1708 ft | 141 kts | 72° |
| 2026-05-08 02:52 | -23.01209 | 14.53889 | 1620 ft | 140 kts | 72° |
| 2026-05-08 02:52 | -23.00897 | 14.54918 | 1623 ft | 146 kts | 72° |
| 2026-05-08 02:52 | -23.00577 | 14.55972 | 1601 ft | 144 kts | 72° |
| 2026-05-08 02:52 | -23.00272 | 14.56977 | 1582 ft | 140 kts | 72° |
| 2026-05-08 02:53 | -22.99965 | 14.57983 | 1395 ft | 142 kts | 71° |
| 2026-05-08 02:53 | -22.99658 | 14.58992 | 1109 ft | 138 kts | 71° |
| 2026-05-08 02:53 | -22.99360 | 14.59969 | 829 ft | 132 kts | 71° |
| 2026-05-08 02:53 | -22.99081 | 14.60892 | 523 ft | 128 kts | 71° |
| 2026-05-08 02:54 | -22.98814 | 14.61803 | 337 ft | 125 kts | 72° |
| 2026-05-08 02:54 | -22.98543 | 14.62714 | 298 ft | 128 kts | 72° |
| 2026-05-08 02:54 | -22.98267 | 14.63621 | 261 ft | 124 kts | 70° |
| 2026-05-08 02:54 | -22.98083 | 14.64229 | 270 ft | 45 kts | 71° |
| 2026-05-08 02:55 | -22.97993 | 14.64529 | 281 ft | 36 kts | 72° |
| 2026-05-08 02:55 | -22.97874 | 14.64856 | 290 ft | 9 kts | 21° |
| 2026-05-08 02:55 | -22.97858 | 14.64857 | 290 ft | 0 kts | 353° |
| 2026-05-08 02:56 | -22.97829 | 14.64846 | 293 ft | 8 kts | 329° |
| 2026-05-08 02:56 | -22.97824 | 14.64781 | 288 ft | 11 kts | 252° |
| 2026-05-08 02:57 | -22.97853 | 14.64686 | 285 ft | 16 kts | 252° |
| 2026-05-08 02:57 | -22.97893 | 14.64553 | 285 ft | 20 kts | 252° |
| 2026-05-08 02:57 | -22.97934 | 14.64412 | 280 ft | 18 kts | 252° |
| 2026-05-08 02:57 | -22.97970 | 14.64294 | 274 ft | 16 kts | 251° |
| 2026-05-08 02:58 | -22.98004 | 14.64182 | 272 ft | 15 kts | 252° |
| 2026-05-08 02:58 | -22.98036 | 14.64076 | 268 ft | 14 kts | 252° |
| 2026-05-08 02:58 | -22.98064 | 14.63981 | 266 ft | 13 kts | 257° |
| 2026-05-08 02:58 | -22.98017 | 14.63918 | 266 ft | 11 kts | 341° |
| 2026-05-08 02:59 | -22.97944 | 14.63897 | 266 ft | 11 kts | 323° |
| 2026-05-08 02:59 | -22.97911 | 14.63825 | 265 ft | 10 kts | 308° |
| 2026-05-08 02:59 | -22.97852 | 14.63798 | 265 ft | 9 kts | 342° |
| 2026-05-08 02:59 | -22.97837 | 14.63793 | 265 ft | 0 kts | 342° |